createdAt,value
2023-10-26T00:02:18.342Z,15.06
2023-10-26T00:04:45.214Z,15.09
2023-10-26T00:07:11.968Z,15.11
2023-10-26T00:09:38.549Z,15.12
2023-10-26T00:12:05.880Z,15.15
2023-10-26T00:14:34.667Z,15.16
2023-10-26T00:17:01.229Z,15.15
2023-10-26T00:19:28.017Z,15.15
2023-10-26T00:21:54.559Z,15.14
2023-10-26T00:24:21.120Z,15.12
2023-10-26T00:26:48.030Z,15.12
2023-10-26T00:29:14.570Z,15.14
2023-10-26T00:31:41.208Z,15.14
2023-10-26T00:34:08.296Z,15.16
2023-10-26T00:36:34.833Z,15.16
2023-10-26T00:39:01.329Z,15.16
2023-10-26T00:41:28.732Z,15.15
2023-10-26T00:43:55.208Z,15.13
2023-10-26T00:46:22.062Z,15.13
2023-10-26T00:48:48.778Z,15.13
2023-10-26T00:51:15.599Z,15.09
2023-10-26T00:53:42.288Z,15.06
2023-10-26T00:56:09.695Z,15.06
2023-10-26T00:58:36.152Z,15.04
2023-10-26T01:01:02.641Z,15.03
2023-10-26T01:03:30.230Z,15.03
2023-10-26T01:05:56.750Z,15.03
2023-10-26T01:08:24.593Z,15.03
2023-10-26T01:10:52.301Z,15.03
2023-10-26T01:13:19.390Z,14.98
2023-10-26T01:15:45.902Z,14.95
2023-10-26T01:18:13.194Z,14.93
2023-10-26T01:20:45.308Z,14.92
2023-10-26T01:23:13.424Z,14.93
2023-10-26T01:25:41.164Z,14.91
2023-10-26T01:28:11.154Z,14.85
2023-10-26T01:30:41.692Z,14.81
2023-10-26T01:33:08.278Z,14.76
2023-10-26T01:35:42.254Z,14.72
2023-10-26T01:38:08.909Z,14.66
2023-10-26T01:40:35.372Z,14.61
2023-10-26T01:43:03.388Z,14.51
2023-10-26T01:45:30.009Z,14.41
2023-10-26T01:47:56.916Z,14.41
2023-10-26T01:50:23.796Z,14.40
2023-10-26T01:52:50.411Z,14.38
2023-10-26T01:55:17.451Z,14.34
2023-10-26T01:57:44.520Z,14.34
2023-10-26T02:00:12.062Z,14.28
2023-10-26T02:02:42.293Z,14.20
2023-10-26T02:05:09.281Z,14.15
2023-10-26T02:07:37.004Z,14.10
2023-10-26T02:10:03.747Z,14.04
2023-10-26T02:12:31.320Z,13.99
2023-10-26T02:14:57.904Z,13.95
2023-10-26T02:17:24.446Z,13.93
2023-10-26T02:19:52.858Z,13.91
2023-10-26T02:22:19.515Z,13.89
2023-10-26T02:24:46.435Z,13.87
2023-10-26T02:27:13.300Z,13.87
2023-10-26T02:29:39.812Z,13.88
2023-10-26T02:32:07.670Z,13.84
2023-10-26T02:34:34.297Z,13.80
2023-10-26T02:37:02.636Z,13.76
2023-10-26T02:39:29.568Z,13.73
2023-10-26T02:41:56.167Z,13.71
2023-10-26T02:44:22.669Z,13.69
2023-10-26T02:46:49.236Z,13.66
2023-10-26T02:49:18.288Z,13.67
2023-10-26T02:51:44.971Z,13.68
2023-10-26T02:54:11.705Z,13.66
2023-10-26T02:56:38.340Z,13.67
2023-10-26T02:59:05.069Z,13.66
2023-10-26T03:01:35.456Z,13.63
2023-10-26T03:04:06.332Z,13.56
2023-10-26T03:06:39.715Z,13.52
2023-10-26T03:09:06.669Z,13.50
2023-10-26T03:11:33.349Z,13.50
2023-10-26T03:14:02.787Z,13.50
2023-10-26T03:16:30.585Z,13.49
2023-10-26T03:18:59.655Z,13.44
2023-10-26T03:21:26.801Z,13.43
2023-10-26T03:23:53.695Z,13.41
2023-10-26T03:26:22.984Z,13.38
2023-10-26T03:28:50.549Z,13.38
2023-10-26T03:31:20.280Z,13.39
2023-10-26T03:33:46.856Z,13.39
2023-10-26T03:36:16.935Z,13.40
2023-10-26T03:38:44.486Z,13.40
2023-10-26T03:41:12.870Z,13.41
2023-10-26T03:43:40.275Z,13.40
2023-10-26T03:46:07.018Z,13.39
2023-10-26T03:48:35.097Z,13.40
2023-10-26T03:51:02.349Z,13.42
2023-10-26T03:53:29.167Z,13.42
2023-10-26T03:55:55.928Z,13.41
2023-10-26T03:58:23.090Z,13.38
2023-10-26T04:00:52.188Z,13.37
2023-10-26T04:03:18.863Z,13.35
2023-10-26T04:05:45.540Z,13.32
2023-10-26T04:08:13.238Z,13.32
2023-10-26T04:10:41.772Z,13.32
2023-10-26T04:13:08.313Z,13.33
2023-10-26T04:15:34.920Z,13.33
2023-10-26T04:18:05.049Z,13.33
2023-10-26T04:20:31.616Z,13.34
2023-10-26T04:22:58.309Z,13.34
2023-10-26T04:25:42.190Z,13.36
2023-10-26T04:28:16.616Z,13.36
2023-10-26T04:31:06.778Z,13.34
2023-10-26T04:33:33.830Z,13.31
2023-10-26T04:36:01.658Z,13.27
2023-10-26T04:38:28.232Z,13.20
2023-10-26T04:40:55.288Z,13.19
2023-10-26T04:43:21.882Z,13.17
2023-10-26T04:45:49.338Z,13.15
2023-10-26T04:48:16.102Z,13.14
2023-10-26T04:50:42.867Z,13.10
2023-10-26T04:53:11.787Z,13.10
2023-10-26T04:55:39.832Z,13.08
2023-10-26T04:58:06.444Z,13.06
2023-10-26T05:00:32.940Z,13.09
2023-10-26T05:03:01.451Z,13.10
2023-10-26T05:05:28.254Z,13.11
2023-10-26T05:07:55.323Z,13.09
2023-10-26T05:10:22.206Z,13.07
2023-10-26T05:12:50.078Z,13.07
2023-10-26T05:15:16.983Z,13.07
2023-10-26T05:17:46.136Z,13.10
2023-10-26T05:20:12.788Z,13.15
2023-10-26T05:22:40.722Z,13.15
2023-10-26T05:25:11.042Z,13.18
2023-10-26T05:27:37.814Z,13.17
2023-10-26T05:30:05.952Z,13.17
2023-10-26T05:32:33.356Z,13.16
2023-10-26T05:35:04.652Z,13.16
2023-10-26T05:37:31.590Z,13.18
2023-10-26T05:39:58.211Z,13.20
2023-10-26T05:42:24.820Z,13.21
2023-10-26T05:44:51.638Z,13.24
2023-10-26T05:47:21.982Z,13.26
2023-10-26T05:49:48.906Z,13.32
2023-10-26T05:52:16.083Z,13.34
2023-10-26T05:54:43.367Z,13.35
2023-10-26T05:57:11.189Z,13.40
2023-10-26T05:59:38.648Z,13.44
2023-10-26T06:02:05.238Z,13.49
2023-10-26T06:04:32.343Z,13.51
2023-10-26T06:06:59.028Z,13.51
2023-10-26T06:09:25.750Z,13.53
2023-10-26T06:11:52.678Z,13.55
2023-10-26T06:14:19.294Z,13.54
2023-10-26T06:16:48.021Z,13.55
2023-10-26T06:19:15.347Z,13.56
2023-10-26T06:21:42.704Z,13.55
2023-10-26T06:24:10.321Z,13.56
2023-10-26T06:26:36.754Z,13.59
2023-10-26T06:29:03.503Z,13.64
2023-10-26T06:31:30.414Z,13.68
2023-10-26T06:33:57.110Z,13.72
2023-10-26T06:36:24.428Z,13.77
2023-10-26T06:38:55.263Z,13.81
2023-10-26T06:41:21.815Z,13.85
2023-10-26T06:55:44.405Z,15.22
2023-10-26T06:58:11.997Z,15.43
2023-10-26T07:00:39.216Z,15.38
2023-10-26T07:03:06.700Z,15.33
2023-10-26T07:05:34.966Z,15.29
2023-10-26T07:08:02.992Z,15.23
2023-10-26T07:10:32.900Z,15.19
2023-10-26T07:13:00.849Z,15.15
2023-10-26T07:15:28.312Z,15.13
2023-10-26T07:17:56.456Z,15.12
2023-10-26T07:20:23.797Z,15.09
2023-10-26T07:22:51.030Z,15.10
2023-10-26T07:25:18.384Z,15.11
2023-10-26T07:27:45.565Z,15.10
2023-10-26T07:30:13.637Z,15.08
2023-10-26T07:32:41.063Z,15.06
2023-10-26T07:35:08.789Z,15.05
2023-10-26T07:37:36.352Z,15.03
2023-10-26T07:40:28.094Z,15.04
2023-10-26T07:42:51.171Z,15.05
2023-10-26T07:45:19.702Z,15.05
2023-10-26T07:47:48.047Z,15.04
2023-10-26T07:50:18.856Z,15.04
2023-10-26T07:52:46.080Z,15.01
2023-10-26T07:55:13.782Z,15.00
2023-10-26T07:57:43.603Z,14.99
2023-10-26T08:00:13.158Z,14.99
2023-10-26T08:02:41.435Z,14.99
2023-10-26T08:05:11.086Z,15.00
2023-10-26T08:07:38.936Z,15.06
2023-10-26T08:10:07.034Z,15.08
2023-10-26T08:12:34.250Z,15.10
2023-10-26T08:16:11.227Z,15.16
2023-10-26T08:17:51.763Z,15.22
2023-10-26T08:20:19.267Z,15.29
2023-10-26T08:22:46.505Z,15.34
2023-10-26T08:25:15.405Z,15.37
2023-10-26T08:27:45.600Z,15.40
2023-10-26T08:30:13.378Z,15.41
2023-10-26T08:32:40.856Z,15.45
2023-10-26T08:35:09.164Z,15.48
2023-10-26T08:37:36.417Z,15.54
2023-10-26T08:40:04.509Z,15.61
2023-10-26T08:42:32.204Z,15.65
2023-10-26T08:44:59.451Z,15.67
2023-10-26T08:47:26.929Z,15.73
2023-10-26T08:50:08.327Z,15.78
2023-10-26T08:52:44.565Z,15.84
2023-10-26T08:55:11.848Z,15.91
2023-10-26T08:57:49.677Z,15.95
2023-10-26T09:00:17.912Z,15.95
2023-10-26T09:02:50.020Z,15.95
2023-10-26T09:05:17.657Z,15.96
2023-10-26T09:07:45.414Z,15.95
2023-10-26T09:10:12.928Z,15.96
2023-10-26T09:12:40.285Z,15.97
2023-10-26T09:15:08.432Z,15.97
2023-10-26T09:17:36.206Z,15.96
2023-10-26T09:20:22.282Z,16.00
2023-10-26T09:22:49.853Z,16.05
2023-10-26T09:25:17.392Z,16.07
2023-10-26T09:27:45.934Z,16.10
2023-10-26T09:30:29.860Z,16.11
2023-10-26T09:33:00.638Z,16.14
2023-10-26T09:35:32.493Z,16.18
2023-10-26T09:38:00.478Z,16.20
2023-10-26T09:40:28.703Z,16.20
2023-10-26T09:42:59.471Z,16.20
2023-10-26T09:45:28.678Z,16.21
2023-10-26T09:47:56.219Z,16.24
2023-10-26T09:50:23.577Z,16.28
2023-10-26T09:52:52.422Z,16.28
2023-10-26T09:55:19.756Z,16.29
2023-10-26T09:57:53.515Z,16.31
2023-10-26T10:00:21.416Z,16.33
2023-10-26T10:03:11.675Z,16.35
2023-10-26T10:05:40.236Z,16.38
2023-10-26T10:08:07.847Z,16.37
2023-10-26T10:10:35.473Z,16.37
2023-10-26T10:13:03.046Z,16.36
2023-10-26T10:15:48.193Z,16.33
2023-10-26T10:18:16.055Z,16.35
2023-10-26T10:20:43.553Z,16.39
2023-10-26T10:23:12.364Z,16.43
2023-10-26T10:25:52.648Z,16.49
2023-10-26T10:28:21.435Z,16.60
2023-10-26T10:30:57.347Z,16.65
2023-10-26T10:33:27.564Z,16.68
2023-10-26T10:36:20.841Z,16.67
2023-10-26T10:38:50.613Z,16.68
2023-10-26T10:41:18.050Z,16.67
2023-10-26T10:43:51.420Z,16.66
2023-10-26T10:46:29.800Z,16.68
2023-10-26T10:49:02.687Z,16.71
2023-10-26T10:51:33.016Z,16.75
2023-10-26T10:54:11.235Z,16.80
2023-10-26T10:56:49.928Z,16.85
2023-10-26T10:59:23.154Z,16.84
2023-10-26T11:02:13.798Z,16.87
2023-10-26T11:07:31.844Z,17.02
2023-10-26T11:10:00.628Z,17.06
2023-10-26T11:12:31.419Z,17.11
2023-10-26T11:14:59.593Z,17.14
2023-10-26T11:17:28.299Z,17.18
2023-10-26T11:19:56.158Z,17.20
2023-10-26T11:22:23.512Z,17.25
2023-10-26T11:24:50.993Z,17.29
2023-10-26T11:27:19.672Z,17.29
2023-10-26T11:30:28.733Z,17.31
2023-10-26T11:32:56.136Z,17.37
2023-10-26T11:35:24.767Z,17.44
2023-10-26T11:37:57.416Z,17.54
2023-10-26T11:40:54.409Z,17.60
2023-10-26T11:43:38.002Z,17.69
2023-10-26T11:46:05.593Z,17.75
2023-10-26T11:48:34.080Z,17.79
2023-10-26T11:51:01.604Z,17.81
2023-10-26T11:53:28.937Z,17.82
2023-10-26T11:55:56.225Z,17.86
2023-10-26T11:58:23.632Z,17.89
2023-10-26T12:00:50.940Z,17.93
2023-10-26T12:03:18.192Z,17.94
2023-10-26T12:05:45.572Z,17.93
2023-10-26T12:08:13.155Z,17.95
2023-10-26T12:10:41.662Z,17.99
2023-10-26T12:13:09.078Z,18.01
2023-10-26T12:15:37.700Z,18.04
2023-10-26T12:18:05.221Z,18.08
2023-10-26T12:20:32.826Z,18.09
2023-10-26T12:23:00.139Z,18.09
2023-10-26T12:25:27.374Z,18.08
2023-10-26T12:28:21.025Z,18.10
2023-10-26T12:30:42.117Z,18.11
2023-10-26T12:33:10.646Z,18.15
2023-10-26T12:35:37.907Z,18.17
2023-10-26T12:38:05.084Z,18.23
2023-10-26T12:40:33.158Z,18.28
2023-10-26T12:43:00.419Z,18.28
2023-10-26T12:45:27.739Z,18.30
2023-10-26T12:47:55.151Z,18.34
2023-10-26T12:50:22.379Z,18.37
2023-10-26T12:52:49.567Z,18.37
2023-10-26T12:55:16.940Z,18.39
2023-10-26T12:57:45.076Z,18.41
2023-10-26T13:00:13.298Z,18.39
2023-10-26T13:02:40.528Z,18.35
2023-10-26T13:05:08.057Z,18.29
2023-10-26T13:07:35.629Z,18.23
2023-10-26T13:10:04.546Z,18.22
2023-10-26T13:12:32.203Z,18.23
2023-10-26T13:15:04.695Z,18.23
2023-10-26T13:17:33.623Z,18.28
2023-10-26T13:20:01.327Z,18.34
2023-10-26T13:22:28.474Z,18.38
2023-10-26T13:24:55.839Z,18.36
2023-10-26T13:27:23.521Z,18.33
2023-10-26T13:29:50.819Z,18.32
2023-10-26T13:32:18.149Z,18.31
2023-10-26T13:34:45.558Z,18.31
2023-10-26T13:37:13.230Z,18.31
2023-10-26T13:39:40.574Z,18.30
2023-10-26T13:42:07.982Z,18.27
2023-10-26T13:44:35.351Z,18.28
2023-10-26T13:47:02.674Z,18.27
2023-10-26T13:49:29.928Z,18.26
2023-10-26T13:51:57.160Z,18.26
2023-10-26T13:54:25.472Z,18.23
2023-10-26T13:56:54.363Z,18.17
2023-10-26T13:59:21.815Z,18.12
2023-10-26T14:01:50.838Z,18.13
2023-10-26T14:04:18.202Z,18.14
2023-10-26T14:06:45.420Z,18.16
2023-10-26T14:09:12.783Z,18.17
2023-10-26T14:11:39.930Z,18.20
2023-10-26T14:14:07.202Z,18.17
2023-10-26T14:16:35.271Z,18.14
2023-10-26T14:19:05.451Z,18.10
2023-10-26T14:21:32.739Z,18.07
2023-10-26T14:24:00.039Z,18.03
2023-10-26T14:26:27.315Z,18.03
2023-10-26T14:28:54.839Z,18.04
2023-10-26T14:31:23.624Z,18.06
2023-10-26T14:33:52.579Z,18.07
2023-10-26T14:36:20.623Z,18.06
2023-10-26T14:38:50.809Z,18.05
2023-10-26T14:41:18.165Z,18.04
2023-10-26T14:43:45.375Z,18.05
2023-10-26T14:46:12.574Z,18.06
2023-10-26T14:48:39.966Z,18.06
2023-10-26T14:51:07.211Z,18.02
2023-10-26T14:53:36.827Z,17.99
2023-10-26T14:56:05.665Z,17.97
2023-10-26T14:58:32.957Z,17.92
2023-10-26T15:01:00.417Z,17.84
2023-10-26T15:03:27.956Z,17.78
2023-10-26T15:05:55.180Z,17.72
2023-10-26T15:08:22.499Z,17.68
2023-10-26T15:10:51.669Z,17.62
2023-10-26T15:13:20.254Z,17.54
2023-10-26T15:15:49.049Z,17.49
2023-10-26T15:18:16.332Z,17.45
2023-10-26T15:20:43.574Z,17.40
2023-10-26T15:23:11.820Z,17.34
2023-10-26T15:25:39.130Z,17.27
2023-10-26T15:28:06.524Z,17.20
2023-10-26T15:30:34.274Z,17.14
2023-10-26T15:33:01.829Z,17.08
2023-10-26T15:35:29.437Z,17.03
2023-10-26T15:37:56.841Z,16.88
2023-10-26T15:40:25.378Z,16.75
2023-10-26T15:42:53.643Z,16.69
2023-10-26T15:45:49.659Z,16.62
2023-10-26T15:48:19.337Z,16.55
2023-10-26T15:51:07.235Z,16.48
2023-10-26T15:53:34.621Z,16.43
2023-10-26T15:56:15.084Z,16.34
2023-10-26T15:58:42.476Z,16.21
2023-10-26T16:01:12.540Z,16.11
2023-10-26T16:04:03.165Z,16.06
2023-10-26T16:06:34.116Z,15.99
2023-10-26T16:09:04.027Z,15.93
2023-10-26T16:11:32.432Z,15.87
2023-10-26T16:14:04.595Z,15.82
2023-10-26T16:16:31.918Z,15.77
2023-10-26T16:18:59.614Z,15.70
2023-10-26T16:21:47.818Z,15.65
2023-10-26T16:24:15.047Z,15.60
2023-10-26T16:26:42.852Z,15.51
2023-10-26T16:29:10.328Z,15.43
2023-10-26T16:31:38.741Z,15.32
2023-10-26T16:34:28.265Z,15.24
2023-10-26T16:36:57.414Z,15.19
2023-10-26T16:39:25.160Z,15.17
2023-10-26T16:41:52.982Z,15.14
2023-10-26T16:44:22.319Z,15.12
2023-10-26T16:47:09.864Z,15.10
2023-10-26T16:49:39.870Z,15.07
2023-10-26T16:52:07.463Z,15.03
2023-10-26T16:54:34.807Z,15.02
2023-10-26T16:57:08.924Z,15.00
2023-10-26T16:59:39.562Z,14.95
2023-10-26T17:02:06.982Z,14.91
2023-10-26T17:04:36.630Z,14.89
2023-10-26T17:07:05.253Z,14.86
2023-10-26T17:09:32.756Z,14.80
2023-10-26T17:12:01.771Z,14.78
2023-10-26T17:14:28.964Z,14.73
2023-10-26T17:16:58.669Z,14.69
2023-10-26T17:19:26.275Z,14.69
2023-10-26T17:21:55.818Z,14.68
2023-10-26T17:24:23.053Z,14.64
2023-10-26T17:26:51.285Z,14.60
2023-10-26T17:29:19.332Z,14.54
2023-10-26T17:31:47.277Z,14.51
2023-10-26T17:34:16.031Z,14.50
2023-10-26T17:36:56.496Z,14.48
2023-10-26T17:39:26.286Z,14.47
2023-10-26T17:41:56.857Z,14.46
2023-10-26T17:44:26.950Z,14.47
2023-10-26T17:46:54.549Z,14.51
2023-10-26T17:49:22.623Z,14.54
2023-10-26T17:51:52.542Z,14.52
2023-10-26T17:54:23.714Z,14.50
2023-10-26T17:56:51.130Z,14.50
2023-10-26T17:59:22.746Z,14.54
2023-10-26T18:01:50.228Z,14.55
2023-10-26T18:04:18.870Z,14.57
2023-10-26T18:06:46.186Z,14.58
2023-10-26T18:09:14.552Z,14.57
2023-10-26T18:11:44.652Z,14.53
2023-10-26T18:14:14.049Z,14.48
2023-10-26T18:16:44.631Z,14.45
2023-10-26T18:19:12.467Z,14.47
2023-10-26T18:21:39.721Z,14.47
2023-10-26T18:24:08.026Z,14.49
2023-10-26T18:26:35.301Z,14.54
2023-10-26T18:29:13.332Z,14.57
2023-10-26T18:31:43.407Z,14.59
2023-10-26T18:34:14.399Z,14.59
2023-10-26T18:36:42.727Z,14.59
2023-10-26T18:39:11.808Z,14.60
2023-10-26T18:41:41.468Z,14.61
2023-10-26T18:44:17.305Z,14.64
2023-10-26T18:46:44.544Z,14.63
2023-10-26T18:49:36.814Z,14.64
2023-10-26T18:52:07.738Z,14.69
2023-10-26T18:54:43.343Z,14.70
2023-10-26T18:57:13.447Z,14.72
2023-10-26T19:00:01.480Z,14.74
2023-10-26T19:02:29.177Z,14.75
2023-10-26T19:04:58.376Z,14.76
2023-10-26T19:07:29.369Z,14.76
2023-10-26T19:10:17.358Z,14.76
2023-10-26T19:12:49.667Z,14.77
2023-10-26T19:15:19.336Z,14.78
2023-10-26T19:17:52.555Z,14.79
2023-10-26T19:20:20.724Z,14.79
2023-10-26T19:23:14.896Z,14.80
2023-10-26T19:25:44.755Z,14.83
2023-10-26T19:28:12.046Z,14.85
2023-10-26T19:30:42.010Z,14.87
2023-10-26T19:33:30.958Z,14.87
2023-10-26T19:36:00.217Z,14.90
2023-10-26T19:38:29.778Z,14.89
2023-10-26T19:40:59.894Z,14.91
2023-10-26T19:43:31.145Z,14.91
2023-10-26T19:46:00.073Z,14.95
2023-10-26T19:48:27.685Z,14.96
2023-10-26T19:50:54.888Z,14.99
2023-10-26T19:53:34.914Z,15.05
2023-10-26T19:56:02.223Z,15.06
2023-10-26T19:58:29.734Z,15.04
2023-10-26T20:00:59.290Z,14.96
2023-10-26T20:03:26.675Z,14.86
2023-10-26T20:05:56.515Z,14.79
2023-10-26T20:08:27.062Z,14.75
2023-10-26T20:10:57.836Z,14.72
2023-10-26T20:13:27.521Z,14.74
2023-10-26T20:15:55.764Z,14.77
2023-10-26T20:18:23.850Z,14.81
2023-10-26T20:20:51.080Z,14.80
2023-10-26T20:23:21.016Z,14.77
2023-10-26T20:25:51.056Z,14.76
2023-10-26T20:28:21.002Z,14.79
2023-10-26T20:30:49.301Z,14.81
2023-10-26T20:33:18.445Z,14.86
2023-10-26T20:35:52.502Z,14.83
2023-10-26T20:38:21.134Z,14.79
2023-10-26T20:40:49.296Z,14.78
2023-10-26T20:43:16.723Z,14.78
2023-10-26T20:45:44.037Z,14.79
2023-10-26T20:48:14.125Z,14.81
2023-10-26T20:50:43.008Z,14.77
2023-10-26T20:53:10.355Z,14.69
2023-10-26T20:55:37.418Z,14.63
2023-10-26T20:58:06.961Z,14.60
2023-10-26T21:00:35.090Z,14.53
2023-10-26T21:03:05.453Z,14.50
2023-10-26T21:05:32.952Z,14.48
2023-10-26T21:08:00.162Z,14.45
2023-10-26T21:10:30.217Z,14.42
2023-10-26T21:12:57.588Z,14.39
2023-10-26T21:15:46.154Z,14.36
2023-10-26T21:18:15.445Z,14.30
2023-10-26T21:20:44.455Z,14.29
2023-10-26T21:23:11.767Z,14.26
2023-10-26T21:25:38.907Z,14.24
2023-10-26T21:28:06.089Z,14.21
2023-10-26T21:30:38.975Z,14.21
2023-10-26T21:33:06.442Z,14.19
2023-10-26T21:35:37.406Z,14.18
2023-10-26T21:38:06.484Z,14.20
2023-10-26T21:40:37.599Z,14.21
2023-10-26T21:43:06.001Z,14.22
2023-10-26T21:45:38.273Z,14.22
2023-10-26T21:48:08.503Z,14.20
2023-10-26T21:50:35.749Z,14.17
2023-10-26T21:53:06.710Z,14.18
2023-10-26T21:55:40.791Z,14.19
2023-10-26T21:58:11.573Z,14.18
2023-10-26T22:00:38.828Z,14.16
2023-10-26T22:03:08.262Z,14.17
2023-10-26T22:05:40.289Z,14.16
2023-10-26T22:08:10.109Z,14.17
2023-10-26T22:10:38.589Z,14.16
2023-10-26T22:13:05.777Z,14.18
2023-10-26T22:15:35.438Z,14.19
2023-10-26T22:18:03.440Z,14.20
2023-10-26T22:20:30.625Z,14.23
2023-10-26T22:22:57.864Z,14.25
2023-10-26T22:25:28.326Z,14.30
2023-10-26T22:27:59.946Z,14.35
2023-10-26T22:30:27.316Z,14.38
2023-10-26T22:32:59.113Z,14.37
2023-10-26T22:35:28.691Z,14.40
2023-10-26T22:37:56.046Z,14.43
2023-10-26T22:40:25.339Z,14.43
2023-10-26T22:42:54.924Z,14.43
2023-10-26T22:45:25.377Z,14.44
2023-10-26T22:47:54.431Z,14.41
2023-10-26T22:50:22.596Z,14.40
2023-10-26T22:52:49.737Z,14.41
2023-10-26T22:55:17.321Z,14.42
2023-10-26T22:57:46.534Z,14.41
2023-10-26T23:00:16.464Z,14.42
2023-10-26T23:03:42.115Z,14.43
2023-10-26T23:06:09.891Z,14.43
2023-10-26T23:08:39.264Z,14.42
2023-10-26T23:11:06.805Z,14.43
2023-10-26T23:13:34.150Z,14.43
2023-10-26T23:16:04.561Z,14.44
2023-10-26T23:18:32.457Z,14.44
2023-10-26T23:21:01.790Z,14.45
2023-10-26T23:23:29.898Z,14.46
2023-10-26T23:25:58.088Z,14.48
2023-10-26T23:28:28.155Z,14.50
2023-10-26T23:30:59.646Z,14.52
2023-10-26T23:33:27.460Z,14.56
2023-10-26T23:35:57.510Z,14.59
2023-10-26T23:38:25.268Z,14.60
2023-10-26T23:40:52.425Z,14.60
2023-10-26T23:43:21.070Z,14.60
2023-10-26T23:45:52.790Z,14.62
2023-10-26T23:49:17.704Z,14.63
2023-10-26T23:51:52.716Z,14.64
2023-10-26T23:54:19.875Z,14.69
2023-10-26T23:56:47.042Z,14.69
2023-10-26T23:59:15.708Z,14.71
